createdAt,value
2022-08-04T04:08:25.766Z,58.164001
2022-08-04T04:10:40.120Z,60.370998
2022-08-04T04:12:54.635Z,60.202999
2022-08-04T04:15:09.064Z,60.16
2022-08-04T04:17:23.633Z,59.245998
2022-08-04T04:19:38.029Z,58.862
2022-08-04T04:21:52.397Z,58.403999
2022-08-04T04:24:06.809Z,57.450001
2022-08-04T04:26:21.275Z,56.307999
2022-08-04T04:28:43.454Z,55.563
2022-08-04T04:30:54.327Z,55.118999
2022-08-04T04:33:08.740Z,54.43
2022-08-04T04:35:24.138Z,54.612
2022-08-04T04:37:38.515Z,54.335999
2022-08-04T04:39:55.954Z,54.258999
2022-08-04T04:42:11.375Z,53.891998
2022-08-04T04:44:30.268Z,53.544998
2022-08-04T04:46:42.163Z,53.280998
2022-08-04T04:48:56.585Z,53.015999
2022-08-04T04:51:10.948Z,52.762001
2022-08-04T04:53:25.386Z,52.743
2022-08-04T04:55:43.014Z,52.606998
2022-08-04T04:57:58.930Z,52.237
2022-08-04T05:00:13.510Z,51.782001
2022-08-04T05:02:27.885Z,51.435001
2022-08-04T05:04:42.414Z,51.712002
2022-08-04T05:06:57.207Z,51.530998
2022-08-04T05:09:11.576Z,51.791
2022-08-04T05:11:25.947Z,51.314999
2022-08-04T05:14:34.180Z,52.004002
2022-08-04T05:15:57.933Z,51.32
2022-08-04T05:18:12.331Z,51.221001
2022-08-04T05:20:26.714Z,50.516998
2022-08-04T05:22:41.116Z,50.730999
2022-08-04T05:24:55.478Z,51.272999
2022-08-04T05:27:09.879Z,51.577999
2022-08-04T05:29:24.310Z,51.623001
2022-08-04T05:31:40.649Z,51.431999
2022-08-04T05:33:56.016Z,51.428001
2022-08-04T05:36:20.950Z,51.289001
2022-08-04T05:38:27.730Z,50.537998
2022-08-04T05:40:43.114Z,50.066002
2022-08-04T05:42:57.494Z,50.081001
2022-08-04T05:45:11.861Z,49.209999
2022-08-04T05:47:26.249Z,49.050999
2022-08-04T05:49:40.632Z,48.951
2022-08-04T05:51:55.003Z,48.824001
2022-08-04T05:54:09.382Z,48.708
2022-08-04T05:56:23.776Z,48.213001
2022-08-04T05:58:38.171Z,48.098
2022-08-04T06:00:52.703Z,48.098999
2022-08-04T06:03:06.908Z,48.863998
2022-08-04T06:05:22.259Z,47.916
2022-08-04T06:07:36.634Z,47.872002
2022-08-04T06:09:54.100Z,47.583
2022-08-04T06:12:08.491Z,47.778
2022-08-04T06:14:22.924Z,47.566002
2022-08-04T06:16:37.420Z,47.597
2022-08-04T06:20:01.501Z,47.688
2022-08-04T06:21:12.151Z,47.606998
2022-08-04T06:23:26.848Z,47.48
2022-08-04T06:25:41.214Z,47.589001
2022-08-04T06:27:56.553Z,47.487999
2022-08-04T06:30:10.901Z,47.186001
2022-08-04T06:32:26.664Z,47.446999
2022-08-04T06:34:42.646Z,47.337002
2022-08-04T06:36:58.005Z,46.841999
2022-08-04T06:39:12.403Z,47.264999
2022-08-04T06:41:26.696Z,46.933998
2022-08-04T06:43:42.760Z,46.605999
2022-08-04T06:45:55.536Z,46.376999
2022-08-04T06:48:10.876Z,46.681999
2022-08-04T06:51:28.974Z,46.792
2022-08-04T06:52:42.649Z,46.286999
2022-08-04T06:54:57.006Z,46.341
2022-08-04T06:57:11.371Z,46.651001
2022-08-04T06:59:25.790Z,46.771
2022-08-04T07:01:41.244Z,46.498001
2022-08-04T07:03:55.543Z,46.330002
2022-08-04T07:06:14.517Z,46.187
2022-08-04T07:08:25.464Z,46.215
2022-08-04T07:10:39.795Z,45.605
2022-08-04T07:12:54.245Z,45.662998
2022-08-04T07:15:08.520Z,45.344002
2022-08-04T07:17:24.893Z,45.293999
2022-08-04T07:19:42.254Z,45.354
2022-08-04T07:22:16.496Z,45.273998
2022-08-04T07:24:13.942Z,45.226002
2022-08-04T07:26:28.404Z,45.632
2022-08-04T07:28:42.752Z,45.451
2022-08-04T07:30:57.091Z,45.566002
2022-08-04T07:33:11.500Z,45.563999
2022-08-04T07:35:34.514Z,45.203999
2022-08-04T07:37:43.241Z,44.859001
2022-08-04T07:39:58.741Z,44.34
2022-08-04T07:42:13.122Z,43.668999
2022-08-04T07:44:27.442Z,43.431999
2022-08-04T07:46:41.820Z,43.094002
2022-08-04T07:48:56.318Z,42.866001
2022-08-04T07:51:10.729Z,42.792
2022-08-04T07:53:53.753Z,42.945
2022-08-04T07:55:42.470Z,42.800999
2022-08-04T07:57:56.800Z,42.925999
2022-08-04T08:00:11.163Z,42.869999
2022-08-04T08:02:25.676Z,43.32
2022-08-04T08:04:40.057Z,42.896
2022-08-04T08:06:54.363Z,42.729
2022-08-04T08:09:12.815Z,42.632999
2022-08-04T08:11:25.122Z,42.455002
2022-08-04T08:13:42.456Z,42.167
2022-08-04T08:15:56.787Z,42.214001
2022-08-04T08:18:11.158Z,41.93
2022-08-04T08:20:29.256Z,41.345001
2022-08-04T08:22:40.945Z,41.095001
2022-08-04T08:24:55.326Z,40.494999
2022-08-04T08:27:09.694Z,40.549
2022-08-04T08:29:24.116Z,41.209999
2022-08-04T08:31:55.299Z,41.127998
2022-08-04T08:33:55.866Z,41.243999
2022-08-04T08:36:10.213Z,40.977001
2022-08-04T08:38:24.558Z,40.841999
2022-08-04T08:40:40.382Z,41.129002
2022-08-04T08:42:53.259Z,41.428001
2022-08-04T08:45:07.647Z,41.570999
2022-08-04T08:47:24.996Z,41.407001
2022-08-04T08:50:01.459Z,41.257
2022-08-04T08:51:56.715Z,40.587002
2022-08-04T08:54:11.105Z,40.659
2022-08-04T08:56:30.899Z,40.594002
2022-08-04T08:58:41.929Z,40.937
2022-08-04T09:00:56.315Z,41.423
2022-08-04T09:03:10.713Z,41.494999
2022-08-04T09:05:25.139Z,41.467999
2022-08-04T09:07:40.517Z,42.363998
2022-08-04T09:09:54.902Z,42.471001
2022-08-04T09:12:09.296Z,42.706001
2022-08-04T09:14:23.684Z,42.074001
2022-08-04T09:16:38.058Z,41.845001
2022-08-04T09:18:52.413Z,42.021
2022-08-04T09:21:06.843Z,42.389
2022-08-04T09:23:21.189Z,42.226002
2022-08-04T09:25:35.618Z,42.386002
2022-08-04T09:27:49.961Z,42.293999
2022-08-04T09:30:04.362Z,42.202999
2022-08-04T09:32:18.726Z,40.958
2022-08-04T09:34:33.199Z,40.834999
2022-08-04T09:36:47.615Z,41.140999
2022-08-04T09:39:02.113Z,41.608002
2022-08-04T09:41:21.054Z,42.172001
2022-08-04T09:43:57.243Z,42.743999
2022-08-04T09:45:51.291Z,42.709
2022-08-04T09:48:05.701Z,42.782001
2022-08-04T09:50:21.080Z,42.48
